createdAt,value
2022-10-17T00:00:32.808Z,99851.28
2022-10-17T00:03:20.472Z,99854.78
2022-10-17T00:06:11.648Z,99849.63
2022-10-17T00:08:58.587Z,99858.19
2022-10-17T00:11:45.925Z,99858.19
2022-10-17T00:14:33.216Z,99854.78
2022-10-17T00:17:20.227Z,99859.13
2022-10-17T00:20:09.702Z,99859.25
2022-10-17T00:22:58.739Z,99855.75
2022-10-17T00:25:45.976Z,99865.22
2022-10-17T00:28:33.515Z,99865.22
2022-10-17T00:31:22.374Z,99874.69
2022-10-17T00:34:09.729Z,99870.47
2022-10-17T00:36:56.910Z,99877.50
2022-10-17T00:39:46.517Z,99875.88
2022-10-17T00:42:33.976Z,99888.00
2022-10-17T00:45:25.149Z,99870.94
2022-10-17T00:48:13.496Z,99877.16
2022-10-17T00:51:00.763Z,99878.09
2022-10-17T00:53:48.556Z,99879.81
2022-10-17T00:56:37.011Z,99885.81
2022-10-17T00:59:26.303Z,99881.47
2022-10-17T01:02:17.593Z,99885.81
2022-10-17T01:05:06.268Z,99884.88
2022-10-17T01:07:56.157Z,99884.16
2022-10-17T01:10:55.750Z,99890.94
2022-10-17T01:13:53.295Z,99894.56
2022-10-17T01:16:52.109Z,99892.81
2022-10-17T01:20:24.977Z,99893.75
2022-10-17T01:23:46.944Z,99899.97
2022-10-17T01:26:56.473Z,99909.41
2022-10-17T01:30:01.500Z,99899.13
2022-10-17T01:32:55.872Z,99904.25
2022-10-17T01:35:49.069Z,99903.47
2022-10-17T01:38:45.749Z,99900.75
2022-10-17T01:41:41.822Z,99894.94
2022-10-17T01:44:34.603Z,99896.53
2022-10-17T01:47:26.248Z,99894.94
2022-10-17T01:50:20.697Z,99894.09
2022-10-17T01:53:14.647Z,99887.22
2022-10-17T01:56:05.222Z,99894.09
2022-10-17T01:58:57.635Z,99885.56
2022-10-17T02:01:47.971Z,99886.50
2022-10-17T02:04:36.656Z,99883.22
2022-10-17T02:07:26.416Z,99884.03
2022-10-17T02:10:21.665Z,99884.03
2022-10-17T02:13:18.656Z,99880.75
2022-10-17T02:16:19.319Z,99885.09
2022-10-17T02:19:27.383Z,99884.38
2022-10-17T02:22:28.804Z,99876.75
2022-10-17T02:25:27.727Z,99879.44
2022-10-17T02:28:22.885Z,99888.09
2022-10-17T02:31:15.601Z,99877.94
2022-10-17T02:34:09.182Z,99880.50
2022-10-17T02:37:00.051Z,99877.13
2022-10-17T02:39:49.635Z,99872.09
2022-10-17T02:42:37.344Z,99880.63
2022-10-17T02:45:28.671Z,99878.16
2022-10-17T02:48:26.238Z,99891.03
2022-10-17T02:51:23.922Z,99883.31
2022-10-17T02:54:18.822Z,99885.06
2022-10-17T02:57:15.568Z,99881.66
2022-10-17T03:00:08.774Z,99890.34
2022-10-17T03:02:56.389Z,99890.34
2022-10-17T03:05:43.736Z,99888.69
2022-10-17T03:08:30.957Z,99897.34
2022-10-17T03:11:17.923Z,99888.91
2022-10-17T03:14:06.525Z,99895.69
2022-10-17T03:16:53.988Z,99886.31
2022-10-17T03:19:41.355Z,99888.09
2022-10-17T03:22:29.858Z,99886.44
2022-10-17T03:25:20.712Z,99891.69
2022-10-17T03:28:10.701Z,99896.28
2022-10-17T03:30:59.380Z,99900.69
2022-10-17T03:33:47.408Z,99905.84
2022-10-17T03:36:34.828Z,99910.19
2022-10-17T03:39:21.853Z,99909.34
2022-10-17T03:42:08.925Z,99901.75
2022-10-17T03:44:56.944Z,99897.44
2022-10-17T03:47:45.229Z,99901.75
2022-10-17T03:50:32.281Z,99902.59
2022-10-17T03:53:20.724Z,99912.03
2022-10-17T03:56:13.870Z,99905.16
2022-10-17T03:59:01.307Z,99912.03
2022-10-17T04:01:50.792Z,99916.38
2022-10-17T04:04:40.194Z,99918.81
2022-10-17T04:10:19.309Z,99927.47
2022-10-17T04:13:07.587Z,99923.16
2022-10-17T04:15:58.453Z,99925.81
2022-10-17T04:18:46.134Z,99937.75
2022-10-17T04:21:34.511Z,99934.50
2022-10-17T04:24:26.512Z,99937.16
2022-10-17T04:27:13.625Z,99937.16
2022-10-17T04:30:05.419Z,99944.97
2022-10-17T04:32:54.237Z,99936.56
2022-10-17T04:35:42.839Z,99940.88
2022-10-17T04:38:32.763Z,99945.31
2022-10-17T04:41:20.621Z,99948.00
2022-10-17T04:44:08.083Z,99946.31
2022-10-17T04:46:59.186Z,99946.31
2022-10-17T04:49:47.588Z,99938.63
2022-10-17T04:52:37.544Z,99939.41
2022-10-17T04:55:25.839Z,99938.63
2022-10-17T04:58:14.512Z,99942.88
2022-10-17T05:01:06.173Z,99929.25
2022-10-17T05:03:54.479Z,99928.56
2022-10-17T05:06:42.384Z,99930.28
2022-10-17T05:09:50.571Z,99947.47
2022-10-17T05:12:40.417Z,99942.47
2022-10-17T05:15:27.870Z,99952.63
2022-10-17T05:18:16.518Z,99951.81
2022-10-17T05:21:05.748Z,99947.47
2022-10-17T05:23:54.417Z,99954.50
2022-10-17T05:26:42.752Z,99953.66
2022-10-17T05:29:31.503Z,99948.63
2022-10-17T05:32:29.115Z,99952.13
2022-10-17T05:35:16.505Z,99946.28
2022-10-17T05:38:03.714Z,99954.94
2022-10-17T05:40:53.646Z,99961.00
2022-10-17T05:43:41.051Z,99955.97
2022-10-17T05:46:29.378Z,99964.50
2022-10-17T05:49:31.880Z,99968.72
2022-10-17T05:52:20.746Z,99964.50
2022-10-17T05:55:22.502Z,99970.59
2022-10-17T05:58:17.665Z,99973.28
2022-10-17T06:01:13.616Z,99963.19
2022-10-17T06:03:49.784Z,99969.97
2022-10-17T06:06:19.990Z,99964.03
2022-10-17T06:08:53.074Z,99967.41
2022-10-17T06:11:27.298Z,99973.47
2022-10-17T06:13:56.018Z,99983.63
2022-10-17T06:16:27.164Z,99980.16
2022-10-17T06:18:57.184Z,99974.09
2022-10-17T06:21:28.245Z,99975.72
2022-10-17T06:24:08.986Z,99981.00
2022-10-17T06:26:39.560Z,99977.47
2022-10-17T06:29:10.173Z,99986.81
2022-10-17T06:31:45.171Z,99990.19
2022-10-17T06:34:15.248Z,99985.06
2022-10-17T06:36:44.563Z,99996.06
2022-10-17T06:39:13.732Z,99991.03
2022-10-17T06:41:59.068Z,99997.91
2022-10-17T06:44:41.613Z,99994.41
2022-10-17T06:47:39.836Z,100005.63
2022-10-17T06:50:28.233Z,100005.56
2022-10-17T06:53:14.644Z,100003.06
2022-10-17T06:56:04.069Z,100001.31
2022-10-17T06:58:53.062Z,100007.28
2022-10-17T07:01:34.339Z,100004.72
2022-10-17T07:04:05.505Z,100006.25
2022-10-17T07:06:37.238Z,100002.75
2022-10-17T07:09:11.502Z,100002.63
2022-10-17T07:11:40.329Z,100010.13
2022-10-17T07:14:09.303Z,100011.78
2022-10-17T07:16:38.220Z,100015.06
2022-10-17T07:19:17.258Z,100020.91
2022-10-17T07:21:47.314Z,100019.91
2022-10-17T07:24:16.229Z,100024.00
2022-10-17T07:26:49.218Z,100016.06
2022-10-17T07:29:18.569Z,100016.78
2022-10-17T07:32:09.837Z,100020.06
2022-10-17T07:34:39.703Z,100028.50
2022-10-17T07:37:12.091Z,100020.69
2022-10-17T07:39:43.746Z,100031.53
2022-10-17T07:42:15.662Z,100021.06
2022-10-17T07:44:47.329Z,100024.31
2022-10-17T07:47:16.063Z,100030.88
2022-10-17T07:49:47.707Z,100036.66
2022-10-17T07:52:18.795Z,100045.78
2022-10-17T07:54:47.412Z,100044.75
2022-10-17T07:57:16.056Z,100046.97
2022-10-17T07:59:44.758Z,100056.94
2022-10-17T08:02:23.726Z,100051.56
2022-10-17T08:04:53.101Z,100046.19
2022-10-17T08:07:29.160Z,100054.41
2022-10-17T08:10:01.565Z,100058.53
2022-10-17T08:12:34.414Z,100063.31
2022-10-17T08:15:03.746Z,100063.81
2022-10-17T08:17:34.780Z,100068.63
2022-10-17T08:20:03.762Z,100066.63
2022-10-17T08:22:34.660Z,100066.41
2022-10-17T08:25:03.271Z,100067.94
2022-10-17T08:27:33.794Z,100063.38
2022-10-17T08:30:03.038Z,100064.09
2022-10-17T08:32:32.220Z,100068.13
2022-10-17T08:35:01.214Z,100060.97
2022-10-17T08:37:31.217Z,100060.75
2022-10-17T08:40:01.730Z,100064.72
2022-10-17T08:43:24.935Z,100071.41
2022-10-17T08:46:00.331Z,100063.47
2022-10-17T08:48:33.062Z,100060.66
2022-10-17T08:51:08.061Z,100055.16
2022-10-17T08:53:41.139Z,100058.31
2022-10-17T08:56:24.862Z,100062.31
2022-10-17T08:59:06.976Z,100063.72
2022-10-17T09:01:44.732Z,100053.16
2022-10-17T09:04:39.654Z,100058.91
2022-10-17T09:07:27.510Z,100045.78
2022-10-17T09:10:05.964Z,100046.38
2022-10-17T09:12:46.367Z,100049.56
2022-10-17T09:15:41.456Z,100044.16
2022-10-17T09:18:16.699Z,100046.50
2022-10-17T09:20:55.887Z,100043.56
2022-10-17T09:23:28.224Z,100053.53
2022-10-17T09:26:00.653Z,100054.13
2022-10-17T09:28:35.353Z,100046.81
2022-10-17T09:31:08.142Z,100054.34
2022-10-17T09:33:53.797Z,100059.25
2022-10-17T09:36:28.841Z,100060.69
2022-10-17T09:39:00.357Z,100077.56
2022-10-17T09:41:51.007Z,100080.59
2022-10-17T09:44:24.603Z,100077.66
2022-10-17T09:47:20.458Z,100079.91
2022-10-17T09:49:50.503Z,100080.34
2022-10-17T09:52:21.561Z,100076.47
2022-10-17T09:54:52.789Z,100077.03
2022-10-17T09:57:23.290Z,100073.41
2022-10-17T10:00:01.329Z,100072.22
2022-10-17T10:02:33.556Z,100084.84
2022-10-17T10:05:07.815Z,100086.38
2022-10-17T10:07:39.817Z,100089.69
2022-10-17T10:10:26.232Z,100081.00
2022-10-17T10:13:17.909Z,100088.63
2022-10-17T10:15:50.152Z,100092.00
2022-10-17T10:18:35.715Z,100097.03
2022-10-17T10:21:09.217Z,100096.91
2022-10-17T10:23:41.089Z,100097.75
2022-10-17T10:26:29.414Z,100107.94
2022-10-17T10:29:01.676Z,100108.75
2022-10-17T10:31:36.112Z,100107.81
2022-10-17T10:34:23.459Z,100106.06
2022-10-17T10:37:00.014Z,100106.06
2022-10-17T10:39:37.419Z,100106.78
2022-10-17T10:42:13.437Z,100106.78
2022-10-17T10:44:42.904Z,100102.28
2022-10-17T10:47:22.454Z,100102.28
2022-10-17T10:49:54.648Z,100093.47
2022-10-17T10:52:33.540Z,100091.72
2022-10-17T10:55:17.438Z,100095.94
2022-10-17T10:57:48.068Z,100089.84
2022-10-17T11:00:21.933Z,100096.66
2022-10-17T11:03:02.500Z,100087.13
2022-10-17T11:05:44.475Z,100090.41
2022-10-17T11:08:26.732Z,100086.06
2022-10-17T11:11:08.208Z,100086.91
2022-10-17T11:13:53.299Z,100087.59
2022-10-17T11:16:35.325Z,100093.59
2022-10-17T11:19:13.825Z,100094.28
2022-10-17T11:21:49.407Z,100095.78
2022-10-17T11:24:25.037Z,100088.72
2022-10-17T11:26:59.881Z,100094.63
2022-10-17T11:29:32.931Z,100102.25
2022-10-17T11:32:07.275Z,100093.44
2022-10-17T11:34:44.656Z,100101.88
2022-10-17T11:37:19.004Z,100100.81
2022-10-17T11:39:53.162Z,100112.66
2022-10-17T11:42:29.790Z,100123.69
2022-10-17T11:45:05.428Z,100108.06
2022-10-17T11:47:45.096Z,100116.50
2022-10-17T11:53:19.677Z,100112.84
2022-10-17T11:55:49.584Z,100114.38
2022-10-17T11:58:36.001Z,100110.84
2022-10-17T12:01:22.920Z,100124.47
2022-10-17T12:04:16.134Z,100118.47
2022-10-17T12:07:01.066Z,100120.91
2022-10-17T12:09:42.056Z,100119.19
2022-10-17T12:12:11.262Z,100127.72
2022-10-17T12:14:45.674Z,100127.72
2022-10-17T12:17:38.916Z,100120.00
2022-10-17T12:20:41.389Z,100120.00
2022-10-17T12:23:28.431Z,100112.22
2022-10-17T12:26:03.315Z,100116.47
2022-10-17T12:28:34.526Z,100115.53
2022-10-17T12:31:10.080Z,100117.84
2022-10-17T12:33:49.804Z,100110.91
2022-10-17T12:36:48.426Z,100110.91
2022-10-17T12:39:52.511Z,100105.88
2022-10-17T12:42:50.240Z,100113.50
2022-10-17T12:45:51.590Z,100106.69
2022-10-17T12:49:02.254Z,100106.81
2022-10-17T12:51:35.821Z,100116.91
2022-10-17T12:54:13.338Z,100119.25
2022-10-17T12:56:47.270Z,100109.59
2022-10-17T12:59:21.811Z,100109.59
2022-10-17T13:01:54.948Z,100091.41
2022-10-17T13:04:23.937Z,100102.53
2022-10-17T13:06:56.151Z,100104.19
2022-10-17T13:09:30.371Z,100105.81
2022-10-17T13:12:04.583Z,100105.69
2022-10-17T13:14:35.401Z,100112.63
2022-10-17T13:17:08.038Z,100109.09
2022-10-17T13:19:44.890Z,100103.00
2022-10-17T13:22:19.672Z,100112.34
2022-10-17T13:24:49.961Z,100109.09
2022-10-17T13:27:28.596Z,100106.50
2022-10-17T13:29:59.240Z,100113.56
2022-10-17T13:32:37.080Z,100112.75
2022-10-17T13:35:12.248Z,100117.09
2022-10-17T13:37:43.171Z,100125.00
2022-10-17T13:40:40.847Z,100124.16
2022-10-17T13:43:18.730Z,100131.09
2022-10-17T13:45:51.436Z,100139.66
2022-10-17T13:48:24.496Z,100136.13
2022-10-17T13:51:00.360Z,100134.34
2022-10-17T13:53:34.260Z,100130.84
2022-10-17T13:58:59.242Z,100132.47
2022-10-17T14:01:30.796Z,100140.25
2022-10-17T14:04:08.955Z,100143.63
2022-10-17T14:06:47.566Z,100139.28
2022-10-17T14:09:23.478Z,100137.66
2022-10-17T14:12:02.608Z,100141.75
2022-10-17T14:14:51.711Z,100146.09
2022-10-17T14:17:26.382Z,100145.28
2022-10-17T14:20:16.109Z,100144.47
2022-10-17T14:23:04.488Z,100142.81
2022-10-17T14:25:41.349Z,100142.94
2022-10-17T14:28:16.929Z,100142.09
2022-10-17T14:30:56.685Z,100142.94
2022-10-17T14:33:35.457Z,100143.75
2022-10-17T14:36:06.644Z,100146.34
2022-10-17T14:38:36.055Z,100141.97
2022-10-17T14:41:41.909Z,100145.41
2022-10-17T14:44:21.860Z,100143.88
2022-10-17T14:46:57.857Z,100146.47
2022-10-17T14:49:38.736Z,100150.69
2022-10-17T14:52:30.910Z,100149.19
2022-10-17T14:55:02.418Z,100155.16
2022-10-17T14:57:45.323Z,100152.56
2022-10-17T15:00:18.502Z,100158.69
2022-10-17T15:02:50.076Z,100160.31
2022-10-17T15:05:20.213Z,100168.06
2022-10-17T15:07:48.778Z,100170.78
2022-10-17T15:10:36.006Z,100171.84
2022-10-17T15:15:54.209Z,100177.81
2022-10-17T15:18:24.183Z,100173.50
2022-10-17T15:21:04.479Z,100178.66
2022-10-17T15:23:35.337Z,100179.59
2022-10-17T15:26:04.324Z,100181.25
2022-10-17T15:28:33.197Z,100193.25
2022-10-17T15:31:01.845Z,100189.81
2022-10-17T15:33:31.997Z,100194.19
2022-10-17T15:36:00.728Z,100197.56
2022-10-17T15:38:29.391Z,100194.31
2022-10-17T15:40:57.986Z,100205.44
2022-10-17T15:43:26.629Z,100201.22
2022-10-17T15:45:55.527Z,100200.41
2022-10-17T15:48:32.386Z,100201.34
2022-10-17T15:51:00.989Z,100193.59
2022-10-17T15:53:29.640Z,100195.38
2022-10-17T15:55:59.491Z,100195.38
2022-10-17T15:58:35.844Z,100198.75
2022-10-17T16:01:07.312Z,100197.94
2022-10-17T16:03:37.390Z,100197.94
2022-10-17T16:06:09.542Z,100195.38
2022-10-17T16:08:40.811Z,100201.47
2022-10-17T16:11:18.714Z,100210.03
2022-10-17T16:13:52.645Z,100206.63
2022-10-17T16:16:22.227Z,100210.16
2022-10-17T16:18:55.384Z,100210.16
2022-10-17T16:21:32.226Z,100205.81
2022-10-17T16:24:01.645Z,100207.56
2022-10-17T16:26:30.908Z,100207.69
2022-10-17T16:29:03.108Z,100217.09
2022-10-17T16:31:35.931Z,100209.47
2022-10-17T16:34:06.884Z,100219.81
2022-10-17T16:36:35.611Z,100225.91
2022-10-17T16:39:04.483Z,100218.16
2022-10-17T16:41:36.057Z,100230.28
2022-10-17T16:44:07.847Z,100222.66
2022-10-17T16:46:39.075Z,100236.50
2022-10-17T16:49:09.588Z,100226.38
2022-10-17T16:51:38.250Z,100232.53
2022-10-17T16:54:06.945Z,100233.44
2022-10-17T16:56:38.740Z,100236.16
2022-10-17T16:59:07.449Z,100243.06
2022-10-17T17:01:36.121Z,100249.19
2022-10-17T17:04:04.952Z,100241.56
2022-10-17T17:06:35.153Z,100242.50
2022-10-17T17:09:03.846Z,100249.41
2022-10-17T17:11:32.797Z,100254.72
2022-10-17T17:14:02.460Z,100248.84
2022-10-17T17:16:33.359Z,100251.56
2022-10-17T17:19:04.637Z,100257.66
2022-10-17T17:21:36.173Z,100262.13
2022-10-17T17:24:06.184Z,100266.47
2022-10-17T17:26:37.100Z,100264.00
2022-10-17T17:29:06.199Z,100263.28
2022-10-17T17:31:38.365Z,100278.06
2022-10-17T17:34:11.100Z,100269.59
2022-10-17T17:36:44.569Z,100268.00
2022-10-17T17:39:15.570Z,100272.56
2022-10-17T17:41:45.750Z,100277.13
2022-10-17T17:44:16.976Z,100270.31
2022-10-17T17:46:46.473Z,100278.31
2022-10-17T17:49:15.603Z,100271.63
2022-10-17T17:51:46.787Z,100285.59
2022-10-17T17:54:15.911Z,100284.91
2022-10-17T17:56:44.640Z,100282.44
2022-10-17T17:59:14.584Z,100290.31
2022-10-17T18:01:44.534Z,100284.53
2022-10-17T18:04:13.615Z,100292.41
2022-10-17T18:06:42.320Z,100290.75
2022-10-17T18:09:12.511Z,100300.41
2022-10-17T18:11:41.992Z,100296.16
2022-10-17T18:14:14.039Z,100295.44
2022-10-17T18:16:42.905Z,100304.16
2022-10-17T18:19:12.924Z,100303.44
2022-10-17T18:21:41.565Z,100314.69
2022-10-17T18:24:11.666Z,100307.91
2022-10-17T18:26:40.332Z,100307.19
2022-10-17T18:29:08.933Z,100310.56
2022-10-17T18:31:37.551Z,100311.53
2022-10-17T18:34:07.052Z,100305.66
2022-10-17T18:36:37.789Z,100314.31
2022-10-17T18:39:06.987Z,100313.50
2022-10-17T18:41:37.086Z,100313.63
2022-10-17T18:44:06.383Z,100313.63
2022-10-17T18:46:40.871Z,100317.13
2022-10-17T18:49:10.477Z,100316.44
2022-10-17T18:51:39.356Z,100306.13
2022-10-17T18:54:13.146Z,100308.72
2022-10-17T18:56:43.563Z,100311.38
2022-10-17T18:59:12.286Z,100305.41
2022-10-17T19:01:43.629Z,100308.78
2022-10-17T19:04:12.852Z,100307.19
2022-10-17T19:06:42.230Z,100308.09
2022-10-17T19:09:13.722Z,100312.47
2022-10-17T19:11:44.017Z,100315.97
2022-10-17T19:14:16.991Z,100315.13
2022-10-17T19:16:49.437Z,100303.19
2022-10-17T19:19:21.102Z,100306.69
2022-10-17T19:21:50.806Z,100310.19
2022-10-17T19:24:22.775Z,100313.72
2022-10-17T19:26:56.353Z,100319.81
2022-10-17T19:29:27.496Z,100307.97
2022-10-17T19:34:29.651Z,100300.34
2022-10-17T19:36:58.402Z,100297.88
2022-10-17T19:39:27.019Z,100301.41
2022-10-17T19:41:57.095Z,100302.22
2022-10-17T19:44:25.990Z,100306.56
2022-10-17T19:46:54.607Z,100310.06
2022-10-17T19:49:23.168Z,100307.50
2022-10-17T19:51:51.901Z,100310.19
2022-10-17T19:54:20.525Z,100297.97
2022-10-17T19:56:49.295Z,100299.75
2022-10-17T19:59:19.566Z,100295.63
2022-10-17T20:01:48.536Z,100305.84
2022-10-17T20:04:35.679Z,100294.00
2022-10-17T20:07:22.962Z,100295.88
2022-10-17T20:10:10.822Z,100298.56
2022-10-17T20:12:57.942Z,100303.00
2022-10-17T20:15:55.553Z,100293.63
2022-10-17T20:18:43.831Z,100292.00
2022-10-17T20:21:34.954Z,100289.50
2022-10-17T20:24:22.539Z,100297.25
2022-10-17T20:27:09.757Z,100292.16
2022-10-17T20:30:01.632Z,100293.94
2022-10-17T20:32:55.220Z,100295.72
2022-10-17T20:38:36.275Z,100300.94
2022-10-17T20:41:24.404Z,100300.16
2022-10-17T20:44:12.736Z,100311.28
2022-10-17T20:47:02.728Z,100304.50
2022-10-17T20:49:52.206Z,100302.84
2022-10-17T20:52:39.095Z,100310.59
2022-10-17T20:55:26.352Z,100310.59
2022-10-17T20:58:14.757Z,100308.81
2022-10-17T21:01:07.813Z,100307.19
2022-10-17T21:03:57.153Z,100309.78
2022-10-17T21:06:51.287Z,100299.53
2022-10-17T21:09:38.438Z,100317.59
2022-10-17T21:12:36.670Z,100314.09
2022-10-17T21:15:30.103Z,100321.94
2022-10-17T21:18:17.469Z,100315.00
2022-10-17T21:21:14.586Z,100319.34
2022-10-17T21:24:06.664Z,100320.28
2022-10-17T21:26:55.684Z,100316.91
2022-10-17T21:29:43.362Z,100324.63
2022-10-17T21:32:40.350Z,100328.03
2022-10-17T21:35:37.642Z,100325.56
2022-10-17T21:38:25.007Z,100329.06
2022-10-17T21:41:15.421Z,100331.66
2022-10-17T21:44:05.528Z,100318.88
2022-10-17T21:46:53.597Z,100312.91
2022-10-17T21:49:40.698Z,100317.22
2022-10-17T21:52:28.286Z,100307.03
2022-10-17T21:55:15.781Z,100304.69
2022-10-17T21:58:04.704Z,100315.72
2022-10-17T22:00:51.931Z,100320.03
2022-10-17T22:03:46.682Z,100314.19
2022-10-17T22:06:42.739Z,100314.19
2022-10-17T22:09:30.210Z,100318.59
2022-10-17T22:12:17.324Z,100314.28
2022-10-17T22:15:07.150Z,100322.97
2022-10-17T22:17:54.441Z,100315.22
2022-10-17T22:20:41.440Z,100305.84
2022-10-17T22:23:28.984Z,100306.75
2022-10-17T22:26:16.461Z,100301.59
2022-10-17T22:29:05.411Z,100302.53
2022-10-17T22:31:54.122Z,100304.31
2022-10-17T22:34:41.197Z,100307.81
2022-10-17T22:37:28.953Z,100307.00
2022-10-17T22:40:16.703Z,100298.34
2022-10-17T22:43:04.118Z,100292.44
2022-10-17T22:45:55.111Z,100295.03
2022-10-17T22:48:44.355Z,100299.38
2022-10-17T22:51:31.502Z,100298.53
2022-10-17T22:54:18.834Z,100294.22
2022-10-17T22:57:05.976Z,100293.38
2022-10-17T22:59:53.272Z,100285.75
2022-10-17T23:02:40.924Z,100287.41
2022-10-17T23:05:29.660Z,100284.13
2022-10-17T23:08:18.937Z,100278.13
2022-10-17T23:11:06.491Z,100266.19
2022-10-17T23:13:53.921Z,100274.88
2022-10-17T23:16:41.040Z,100274.03
2022-10-17T23:19:28.086Z,100271.56
2022-10-17T23:22:16.639Z,100259.59
2022-10-17T23:25:04.689Z,100270.75
2022-10-17T23:27:51.981Z,100283.66
2022-10-17T23:30:40.428Z,100280.22
2022-10-17T23:33:27.566Z,100282.81
2022-10-17T23:36:16.678Z,100274.25
2022-10-17T23:39:05.458Z,100279.28
2022-10-17T23:41:52.545Z,100290.53
2022-10-17T23:44:39.546Z,100283.75
2022-10-17T23:47:26.931Z,100282.91
2022-10-17T23:50:14.036Z,100272.59
2022-10-17T23:53:01.196Z,100283.84
2022-10-17T23:55:50.109Z,100273.53
2022-10-17T23:58:38.453Z,100267.56
